sensor_id;sensor_type;location;lat;lon;timestamp;temperature;humidity
58554;DHT22;48119;53.218;6.576;2022-09-02T00:00:43;19.30;76.90
58554;DHT22;48119;53.218;6.576;2022-09-02T00:03:10;19.30;76.80
58554;DHT22;48119;53.218;6.576;2022-09-02T00:05:35;19.30;76.90
58554;DHT22;48119;53.218;6.576;2022-09-02T00:08:02;19.30;76.80
58554;DHT22;48119;53.218;6.576;2022-09-02T00:10:28;19.30;76.70
58554;DHT22;48119;53.218;6.576;2022-09-02T00:12:54;19.30;76.50
58554;DHT22;48119;53.218;6.576;2022-09-02T00:15:19;19.30;76.50
58554;DHT22;48119;53.218;6.576;2022-09-02T00:17:45;19.30;76.50
58554;DHT22;48119;53.218;6.576;2022-09-02T00:20:11;19.20;76.40
58554;DHT22;48119;53.218;6.576;2022-09-02T00:22:37;19.20;76.40
58554;DHT22;48119;53.218;6.576;2022-09-02T00:25:03;19.20;76.40
58554;DHT22;48119;53.218;6.576;2022-09-02T00:27:29;19.20;76.60
58554;DHT22;48119;53.218;6.576;2022-09-02T00:29:55;19.20;76.30
58554;DHT22;48119;53.218;6.576;2022-09-02T00:32:20;19.20;76.30
58554;DHT22;48119;53.218;6.576;2022-09-02T00:34:46;19.20;76.30
58554;DHT22;48119;53.218;6.576;2022-09-02T00:37:13;19.10;76.20
58554;DHT22;48119;53.218;6.576;2022-09-02T00:39:39;19.10;76.30
58554;DHT22;48119;53.218;6.576;2022-09-02T00:42:05;19.10;76.40
58554;DHT22;48119;53.218;6.576;2022-09-02T00:44:31;19.10;76.40
58554;DHT22;48119;53.218;6.576;2022-09-02T00:46:58;19.00;76.40
58554;DHT22;48119;53.218;6.576;2022-09-02T00:49:30;19.00;76.60
58554;DHT22;48119;53.218;6.576;2022-09-02T00:52:16;19.00;76.70
58554;DHT22;48119;53.218;6.576;2022-09-02T00:54:59;19.00;76.70
58554;DHT22;48119;53.218;6.576;2022-09-02T00:57:33;18.90;76.80
58554;DHT22;48119;53.218;6.576;2022-09-02T01:00:20;18.90;76.80
58554;DHT22;48119;53.218;6.576;2022-09-02T01:02:51;18.90;76.80
58554;DHT22;48119;53.218;6.576;2022-09-02T01:05:19;18.90;76.90
58554;DHT22;48119;53.218;6.576;2022-09-02T01:07:46;18.90;77.00
58554;DHT22;48119;53.218;6.576;2022-09-02T01:10:15;18.90;77.10
58554;DHT22;48119;53.218;6.576;2022-09-02T01:12:42;18.80;77.10
58554;DHT22;48119;53.218;6.576;2022-09-02T01:15:12;18.80;77.20
58554;DHT22;48119;53.218;6.576;2022-09-02T01:17:42;18.80;77.30
58554;DHT22;48119;53.218;6.576;2022-09-02T01:20:22;18.80;77.20
58554;DHT22;48119;53.218;6.576;2022-09-02T01:22:48;18.80;77.20
58554;DHT22;48119;53.218;6.576;2022-09-02T01:25:27;18.70;77.10
58554;DHT22;48119;53.218;6.576;2022-09-02T01:28:05;18.70;77.20
58554;DHT22;48119;53.218;6.576;2022-09-02T01:30:33;18.70;77.30
58554;DHT22;48119;53.218;6.576;2022-09-02T01:32:59;18.70;77.30
58554;DHT22;48119;53.218;6.576;2022-09-02T01:35:24;18.70;77.30
58554;DHT22;48119;53.218;6.576;2022-09-02T01:37:54;18.70;77.30
58554;DHT22;48119;53.218;6.576;2022-09-02T01:40:20;18.70;77.30
58554;DHT22;48119;53.218;6.576;2022-09-02T01:42:46;18.60;77.30
58554;DHT22;48119;53.218;6.576;2022-09-02T01:45:14;18.60;77.30
58554;DHT22;48119;53.218;6.576;2022-09-02T01:47:40;18.60;77.30
58554;DHT22;48119;53.218;6.576;2022-09-02T01:50:07;18.50;77.30
58554;DHT22;48119;53.218;6.576;2022-09-02T01:52:34;18.60;77.40
58554;DHT22;48119;53.218;6.576;2022-09-02T01:55:00;18.50;77.40
58554;DHT22;48119;53.218;6.576;2022-09-02T01:57:26;18.50;77.40
58554;DHT22;48119;53.218;6.576;2022-09-02T01:59:53;18.50;77.40
58554;DHT22;48119;53.218;6.576;2022-09-02T02:02:20;18.60;77.40
58554;DHT22;48119;53.218;6.576;2022-09-02T02:04:47;18.50;77.30
58554;DHT22;48119;53.218;6.576;2022-09-02T02:07:14;18.50;77.40
58554;DHT22;48119;53.218;6.576;2022-09-02T02:09:41;18.50;77.40
58554;DHT22;48119;53.218;6.576;2022-09-02T02:12:07;18.50;77.40
58554;DHT22;48119;53.218;6.576;2022-09-02T02:14:33;18.50;77.30
58554;DHT22;48119;53.218;6.576;2022-09-02T02:16:59;18.50;77.40
58554;DHT22;48119;53.218;6.576;2022-09-02T02:19:25;18.50;77.50
58554;DHT22;48119;53.218;6.576;2022-09-02T02:21:51;18.40;77.50
58554;DHT22;48119;53.218;6.576;2022-09-02T02:24:17;18.40;77.50
58554;DHT22;48119;53.218;6.576;2022-09-02T02:26:42;18.40;77.50
58554;DHT22;48119;53.218;6.576;2022-09-02T02:29:10;18.30;77.50
58554;DHT22;48119;53.218;6.576;2022-09-02T02:31:35;18.30;77.50
58554;DHT22;48119;53.218;6.576;2022-09-02T02:34:02;18.30;77.50
58554;DHT22;48119;53.218;6.576;2022-09-02T02:36:28;18.30;77.60
58554;DHT22;48119;53.218;6.576;2022-09-02T02:38:54;18.30;77.60
58554;DHT22;48119;53.218;6.576;2022-09-02T02:41:20;18.30;77.60
58554;DHT22;48119;53.218;6.576;2022-09-02T02:43:46;18.30;77.70
58554;DHT22;48119;53.218;6.576;2022-09-02T02:46:12;18.20;77.80
58554;DHT22;48119;53.218;6.576;2022-09-02T02:48:38;18.20;77.80
58554;DHT22;48119;53.218;6.576;2022-09-02T02:51:05;18.20;77.80
58554;DHT22;48119;53.218;6.576;2022-09-02T02:53:31;18.20;77.70
58554;DHT22;48119;53.218;6.576;2022-09-02T02:56:00;18.20;77.90
58554;DHT22;48119;53.218;6.576;2022-09-02T02:58:26;18.10;77.80
58554;DHT22;48119;53.218;6.576;2022-09-02T03:00:52;18.10;77.90
58554;DHT22;48119;53.218;6.576;2022-09-02T03:03:18;18.10;78.00
58554;DHT22;48119;53.218;6.576;2022-09-02T03:05:45;18.10;78.00
58554;DHT22;48119;53.218;6.576;2022-09-02T03:08:11;18.00;77.90
58554;DHT22;48119;53.218;6.576;2022-09-02T03:10:41;18.00;78.10
58554;DHT22;48119;53.218;6.576;2022-09-02T03:13:09;18.00;78.20
58554;DHT22;48119;53.218;6.576;2022-09-02T03:15:36;18.00;78.20
58554;DHT22;48119;53.218;6.576;2022-09-02T03:18:02;17.90;78.20
58554;DHT22;48119;53.218;6.576;2022-09-02T03:20:28;17.90;78.20
58554;DHT22;48119;53.218;6.576;2022-09-02T03:22:56;17.90;78.30
58554;DHT22;48119;53.218;6.576;2022-09-02T03:25:25;17.90;78.30
58554;DHT22;48119;53.218;6.576;2022-09-02T03:27:51;17.90;78.30
58554;DHT22;48119;53.218;6.576;2022-09-02T03:30:21;17.90;78.40
58554;DHT22;48119;53.218;6.576;2022-09-02T03:32:48;17.90;78.40
58554;DHT22;48119;53.218;6.576;2022-09-02T03:35:17;17.90;78.40
58554;DHT22;48119;53.218;6.576;2022-09-02T03:37:44;17.90;78.30
58554;DHT22;48119;53.218;6.576;2022-09-02T03:40:13;17.80;78.40
58554;DHT22;48119;53.218;6.576;2022-09-02T03:42:40;17.80;78.40
58554;DHT22;48119;53.218;6.576;2022-09-02T03:45:07;17.80;78.50
58554;DHT22;48119;53.218;6.576;2022-09-02T03:47:34;17.80;78.60
58554;DHT22;48119;53.218;6.576;2022-09-02T03:50:00;17.70;78.70
58554;DHT22;48119;53.218;6.576;2022-09-02T03:52:28;17.70;78.80
58554;DHT22;48119;53.218;6.576;2022-09-02T03:54:54;17.70;78.90
58554;DHT22;48119;53.218;6.576;2022-09-02T03:57:19;17.70;78.80
58554;DHT22;48119;53.218;6.576;2022-09-02T03:59:50;17.70;78.70
58554;DHT22;48119;53.218;6.576;2022-09-02T04:02:16;17.60;78.80
58554;DHT22;48119;53.218;6.576;2022-09-02T04:04:42;17.60;78.80
58554;DHT22;48119;53.218;6.576;2022-09-02T04:07:08;17.60;78.80
58554;DHT22;48119;53.218;6.576;2022-09-02T04:09:34;17.60;78.90
58554;DHT22;48119;53.218;6.576;2022-09-02T04:11:59;17.60;78.90
58554;DHT22;48119;53.218;6.576;2022-09-02T04:14:25;17.60;78.90
58554;DHT22;48119;53.218;6.576;2022-09-02T04:16:52;17.60;79.00
58554;DHT22;48119;53.218;6.576;2022-09-02T04:19:17;17.50;79.00
58554;DHT22;48119;53.218;6.576;2022-09-02T04:21:43;17.50;79.00
58554;DHT22;48119;53.218;6.576;2022-09-02T04:24:10;17.50;79.10
58554;DHT22;48119;53.218;6.576;2022-09-02T04:26:36;17.50;79.20
58554;DHT22;48119;53.218;6.576;2022-09-02T04:29:02;17.50;79.30
58554;DHT22;48119;53.218;6.576;2022-09-02T04:31:29;17.50;79.40
58554;DHT22;48119;53.218;6.576;2022-09-02T04:33:55;17.40;79.50
58554;DHT22;48119;53.218;6.576;2022-09-02T04:36:22;17.40;79.50
58554;DHT22;48119;53.218;6.576;2022-09-02T04:38:48;17.40;79.60
58554;DHT22;48119;53.218;6.576;2022-09-02T04:41:18;17.40;79.70
58554;DHT22;48119;53.218;6.576;2022-09-02T04:43:46;17.40;79.70
58554;DHT22;48119;53.218;6.576;2022-09-02T04:46:14;17.30;79.70
58554;DHT22;48119;53.218;6.576;2022-09-02T04:48:41;17.30;79.80
58554;DHT22;48119;53.218;6.576;2022-09-02T04:51:33;17.30;80.60
58554;DHT22;48119;53.218;6.576;2022-09-02T04:53:59;17.30;79.90
58554;DHT22;48119;53.218;6.576;2022-09-02T04:56:27;17.30;79.90
58554;DHT22;48119;53.218;6.576;2022-09-02T04:58:54;17.30;79.90
58554;DHT22;48119;53.218;6.576;2022-09-02T05:01:23;17.30;80.00
58554;DHT22;48119;53.218;6.576;2022-09-02T05:03:49;17.30;80.00
58554;DHT22;48119;53.218;6.576;2022-09-02T05:06:18;17.30;80.10
58554;DHT22;48119;53.218;6.576;2022-09-02T05:08:45;17.30;80.10
58554;DHT22;48119;53.218;6.576;2022-09-02T05:11:18;17.30;80.20
58554;DHT22;48119;53.218;6.576;2022-09-02T05:13:46;17.30;80.20
58554;DHT22;48119;53.218;6.576;2022-09-02T05:16:19;17.30;80.40
58554;DHT22;48119;53.218;6.576;2022-09-02T05:18:45;17.20;80.50
58554;DHT22;48119;53.218;6.576;2022-09-02T05:21:11;17.20;80.60
58554;DHT22;48119;53.218;6.576;2022-09-02T05:23:37;17.20;80.70
58554;DHT22;48119;53.218;6.576;2022-09-02T05:26:07;17.20;80.70
58554;DHT22;48119;53.218;6.576;2022-09-02T05:28:34;17.20;80.70
58554;DHT22;48119;53.218;6.576;2022-09-02T05:31:19;17.20;80.70
58554;DHT22;48119;53.218;6.576;2022-09-02T05:33:45;17.20;80.60
58554;DHT22;48119;53.218;6.576;2022-09-02T05:36:14;17.20;80.60
58554;DHT22;48119;53.218;6.576;2022-09-02T05:38:41;17.20;80.70
58554;DHT22;48119;53.218;6.576;2022-09-02T05:41:09;17.20;80.70
58554;DHT22;48119;53.218;6.576;2022-09-02T05:43:37;17.20;80.70
58554;DHT22;48119;53.218;6.576;2022-09-02T05:46:08;17.20;80.60
58554;DHT22;48119;53.218;6.576;2022-09-02T05:48:35;17.20;80.70
58554;DHT22;48119;53.218;6.576;2022-09-02T05:51:20;17.20;80.70
58554;DHT22;48119;53.218;6.576;2022-09-02T05:53:45;17.10;80.80
58554;DHT22;48119;53.218;6.576;2022-09-02T05:56:12;17.10;80.80
58554;DHT22;48119;53.218;6.576;2022-09-02T05:58:37;17.10;80.80
58554;DHT22;48119;53.218;6.576;2022-09-02T06:01:11;17.10;80.80
58554;DHT22;48119;53.218;6.576;2022-09-02T06:03:37;17.20;80.90
58554;DHT22;48119;53.218;6.576;2022-09-02T06:06:03;17.20;80.80
58554;DHT22;48119;53.218;6.576;2022-09-02T06:08:29;17.20;80.80
58554;DHT22;48119;53.218;6.576;2022-09-02T06:10:55;17.20;80.80
58554;DHT22;48119;53.218;6.576;2022-09-02T06:13:21;17.20;81.00
58554;DHT22;48119;53.218;6.576;2022-09-02T06:15:49;17.20;81.10
58554;DHT22;48119;53.218;6.576;2022-09-02T06:18:16;17.20;81.10
58554;DHT22;48119;53.218;6.576;2022-09-02T06:20:43;17.30;81.10
58554;DHT22;48119;53.218;6.576;2022-09-02T06:23:12;17.30;81.20
58554;DHT22;48119;53.218;6.576;2022-09-02T06:25:40;17.30;81.30
58554;DHT22;48119;53.218;6.576;2022-09-02T06:28:07;17.30;81.40
58554;DHT22;48119;53.218;6.576;2022-09-02T06:30:33;17.30;81.40
58554;DHT22;48119;53.218;6.576;2022-09-02T06:32:59;17.30;81.40
58554;DHT22;48119;53.218;6.576;2022-09-02T06:35:28;17.30;81.30
58554;DHT22;48119;53.218;6.576;2022-09-02T06:37:55;17.30;81.20
58554;DHT22;48119;53.218;6.576;2022-09-02T06:40:20;17.40;81.10
58554;DHT22;48119;53.218;6.576;2022-09-02T06:42:47;17.40;81.10
58554;DHT22;48119;53.218;6.576;2022-09-02T06:45:14;17.40;81.20
58554;DHT22;48119;53.218;6.576;2022-09-02T06:47:39;17.50;81.20
58554;DHT22;48119;53.218;6.576;2022-09-02T06:50:05;17.50;81.20
58554;DHT22;48119;53.218;6.576;2022-09-02T06:52:31;17.50;81.10
58554;DHT22;48119;53.218;6.576;2022-09-02T06:54:57;17.50;81.00
58554;DHT22;48119;53.218;6.576;2022-09-02T06:57:23;17.50;81.00
58554;DHT22;48119;53.218;6.576;2022-09-02T06:59:49;17.50;81.10
58554;DHT22;48119;53.218;6.576;2022-09-02T07:02:15;17.60;81.10
58554;DHT22;48119;53.218;6.576;2022-09-02T07:04:40;17.60;81.00
58554;DHT22;48119;53.218;6.576;2022-09-02T07:07:25;17.60;81.00
58554;DHT22;48119;53.218;6.576;2022-09-02T07:09:51;17.60;81.20
58554;DHT22;48119;53.218;6.576;2022-09-02T07:12:18;17.60;81.30
58554;DHT22;48119;53.218;6.576;2022-09-02T07:14:44;17.70;81.30
58554;DHT22;48119;53.218;6.576;2022-09-02T07:17:13;17.70;81.30
58554;DHT22;48119;53.218;6.576;2022-09-02T07:19:43;17.80;81.30
58554;DHT22;48119;53.218;6.576;2022-09-02T07:22:09;17.80;81.30
58554;DHT22;48119;53.218;6.576;2022-09-02T07:24:36;17.80;81.30
58554;DHT22;48119;53.218;6.576;2022-09-02T07:27:02;17.80;81.10
58554;DHT22;48119;53.218;6.576;2022-09-02T07:29:28;17.90;81.10
58554;DHT22;48119;53.218;6.576;2022-09-02T07:31:54;17.90;81.00
58554;DHT22;48119;53.218;6.576;2022-09-02T07:34:20;17.90;80.90
58554;DHT22;48119;53.218;6.576;2022-09-02T07:36:46;18.00;80.90
58554;DHT22;48119;53.218;6.576;2022-09-02T07:39:14;18.00;81.00
58554;DHT22;48119;53.218;6.576;2022-09-02T07:41:43;18.00;81.00
58554;DHT22;48119;53.218;6.576;2022-09-02T07:44:13;18.00;80.80
58554;DHT22;48119;53.218;6.576;2022-09-02T07:46:39;18.00;80.70
58554;DHT22;48119;53.218;6.576;2022-09-02T07:49:09;18.10;80.70
58554;DHT22;48119;53.218;6.576;2022-09-02T07:51:38;18.20;80.60
58554;DHT22;48119;53.218;6.576;2022-09-02T07:54:04;18.20;80.60
58554;DHT22;48119;53.218;6.576;2022-09-02T07:56:31;18.30;80.60
58554;DHT22;48119;53.218;6.576;2022-09-02T07:58:56;18.30;80.50
58554;DHT22;48119;53.218;6.576;2022-09-02T08:01:23;18.30;80.40
58554;DHT22;48119;53.218;6.576;2022-09-02T08:03:49;18.40;80.40
58554;DHT22;48119;53.218;6.576;2022-09-02T08:06:15;18.40;80.20
58554;DHT22;48119;53.218;6.576;2022-09-02T08:08:41;18.40;79.70
58554;DHT22;48119;53.218;6.576;2022-09-02T08:11:07;18.50;79.40
58554;DHT22;48119;53.218;6.576;2022-09-02T08:13:35;18.60;79.30
58554;DHT22;48119;53.218;6.576;2022-09-02T08:16:02;18.60;79.20
58554;DHT22;48119;53.218;6.576;2022-09-02T08:18:28;18.70;79.30
58554;DHT22;48119;53.218;6.576;2022-09-02T08:20:57;18.70;79.10
58554;DHT22;48119;53.218;6.576;2022-09-02T08:23:23;18.70;79.00
58554;DHT22;48119;53.218;6.576;2022-09-02T08:25:48;18.80;79.20
58554;DHT22;48119;53.218;6.576;2022-09-02T08:28:14;18.80;79.00
58554;DHT22;48119;53.218;6.576;2022-09-02T08:30:40;18.80;78.80
58554;DHT22;48119;53.218;6.576;2022-09-02T08:33:06;18.90;78.70
58554;DHT22;48119;53.218;6.576;2022-09-02T08:35:31;18.90;78.50
58554;DHT22;48119;53.218;6.576;2022-09-02T08:37:58;19.00;78.20
58554;DHT22;48119;53.218;6.576;2022-09-02T08:40:33;19.00;78.10
58554;DHT22;48119;53.218;6.576;2022-09-02T08:43:01;19.00;77.90
58554;DHT22;48119;53.218;6.576;2022-09-02T08:45:32;19.10;77.80
58554;DHT22;48119;53.218;6.576;2022-09-02T08:48:20;19.10;77.70
58554;DHT22;48119;53.218;6.576;2022-09-02T08:50:49;19.20;77.60
58554;DHT22;48119;53.218;6.576;2022-09-02T08:55:54;19.20;77.30
58554;DHT22;48119;53.218;6.576;2022-09-02T08:58:23;19.30;77.40
58554;DHT22;48119;53.218;6.576;2022-09-02T09:15:10;19.50;76.90
58554;DHT22;48119;53.218;6.576;2022-09-02T09:17:41;19.50;76.20
58554;DHT22;48119;53.218;6.576;2022-09-02T09:20:18;19.50;76.10
58554;DHT22;48119;53.218;6.576;2022-09-02T09:22:44;19.60;76.20
58554;DHT22;48119;53.218;6.576;2022-09-02T09:25:11;19.60;76.30
58554;DHT22;48119;53.218;6.576;2022-09-02T09:27:38;19.70;76.40
58554;DHT22;48119;53.218;6.576;2022-09-02T09:30:08;19.70;76.30
58554;DHT22;48119;53.218;6.576;2022-09-02T09:32:45;19.80;76.00
58554;DHT22;48119;53.218;6.576;2022-09-02T09:35:13;19.80;75.80
58554;DHT22;48119;53.218;6.576;2022-09-02T09:37:44;19.80;75.60
58554;DHT22;48119;53.218;6.576;2022-09-02T09:42:43;19.90;75.10
58554;DHT22;48119;53.218;6.576;2022-09-02T09:45:32;20.00;75.10
58554;DHT22;48119;53.218;6.576;2022-09-02T09:53:29;20.10;73.70
58554;DHT22;48119;53.218;6.576;2022-09-02T09:56:06;20.20;73.50
58554;DHT22;48119;53.218;6.576;2022-09-02T10:01:15;20.30;72.50
58554;DHT22;48119;53.218;6.576;2022-09-02T10:03:47;20.40;72.30
58554;DHT22;48119;53.218;6.576;2022-09-02T10:06:41;20.40;72.20
58554;DHT22;48119;53.218;6.576;2022-09-02T10:11:38;20.50;71.70
58554;DHT22;48119;53.218;6.576;2022-09-02T10:14:09;20.60;71.90
58554;DHT22;48119;53.218;6.576;2022-09-02T10:30:24;20.90;68.40
58554;DHT22;48119;53.218;6.576;2022-09-02T10:33:08;20.90;68.30
58554;DHT22;48119;53.218;6.576;2022-09-02T10:36:06;20.90;68.20
58554;DHT22;48119;53.218;6.576;2022-09-02T10:38:48;20.90;68.40
58554;DHT22;48119;53.218;6.576;2022-09-02T10:44:00;21.00;68.30
58554;DHT22;48119;53.218;6.576;2022-09-02T10:46:43;21.10;68.10
58554;DHT22;48119;53.218;6.576;2022-09-02T10:49:14;21.10;67.10
58554;DHT22;48119;53.218;6.576;2022-09-02T10:57:41;21.20;66.20
58554;DHT22;48119;53.218;6.576;2022-09-02T11:00:15;21.20;66.10
58554;DHT22;48119;53.218;6.576;2022-09-02T11:05:28;21.30;66.80
58554;DHT22;48119;53.218;6.576;2022-09-02T11:08:09;21.30;66.80
58554;DHT22;48119;53.218;6.576;2022-09-02T11:10:41;21.30;66.30
58554;DHT22;48119;53.218;6.576;2022-09-02T11:13:22;21.40;66.30
58554;DHT22;48119;53.218;6.576;2022-09-02T11:15:56;21.50;66.10
58554;DHT22;48119;53.218;6.576;2022-09-02T11:19:29;21.50;65.70
58554;DHT22;48119;53.218;6.576;2022-09-02T11:21:48;21.50;64.10
58554;DHT22;48119;53.218;6.576;2022-09-02T11:24:38;21.60;64.00
58554;DHT22;48119;53.218;6.576;2022-09-02T11:27:12;21.70;64.70
58554;DHT22;48119;53.218;6.576;2022-09-02T11:32:45;21.70;63.90
58554;DHT22;48119;53.218;6.576;2022-09-02T11:35:18;21.80;63.30
58554;DHT22;48119;53.218;6.576;2022-09-02T11:40:58;21.80;62.30
58554;DHT22;48119;53.218;6.576;2022-09-02T11:43:45;21.80;61.50
58554;DHT22;48119;53.218;6.576;2022-09-02T11:52:37;21.90;61.00
58554;DHT22;48119;53.218;6.576;2022-09-02T11:55:21;22.00;61.40
58554;DHT22;48119;53.218;6.576;2022-09-02T11:57:53;22.00;61.70
58554;DHT22;48119;53.218;6.576;2022-09-02T12:00:35;22.10;62.90
58554;DHT22;48119;53.218;6.576;2022-09-02T12:03:24;22.10;62.20
58554;DHT22;48119;53.218;6.576;2022-09-02T12:06:11;22.10;62.00
58554;DHT22;48119;53.218;6.576;2022-09-02T12:14:03;22.20;62.10
58554;DHT22;48119;53.218;6.576;2022-09-02T12:21:32;22.30;61.40
58554;DHT22;48119;53.218;6.576;2022-09-02T12:28:52;22.40;60.40
58554;DHT22;48119;53.218;6.576;2022-09-02T12:31:43;22.40;60.30
58554;DHT22;48119;53.218;6.576;2022-09-02T12:37:03;22.40;60.00
58554;DHT22;48119;53.218;6.576;2022-09-02T12:50:21;22.50;58.40
58554;DHT22;48119;53.218;6.576;2022-09-02T12:58:51;22.50;58.20
58554;DHT22;48119;53.218;6.576;2022-09-02T13:07:22;22.50;58.80
58554;DHT22;48119;53.218;6.576;2022-09-02T13:13:08;22.50;57.90
58554;DHT22;48119;53.218;6.576;2022-09-02T13:15:42;22.50;57.70
58554;DHT22;48119;53.218;6.576;2022-09-02T13:22:01;22.60;57.60
58554;DHT22;48119;53.218;6.576;2022-09-02T13:32:37;22.60;57.10
58554;DHT22;48119;53.218;6.576;2022-09-02T13:35:15;22.60;57.00
58554;DHT22;48119;53.218;6.576;2022-09-02T13:37:58;22.60;56.70
58554;DHT22;48119;53.218;6.576;2022-09-02T13:40:43;22.70;57.30
58554;DHT22;48119;53.218;6.576;2022-09-02T13:43:16;22.70;56.90
58554;DHT22;48119;53.218;6.576;2022-09-02T13:45:43;22.70;56.50
58554;DHT22;48119;53.218;6.576;2022-09-02T13:48:20;22.70;56.00
58554;DHT22;48119;53.218;6.576;2022-09-02T13:50:49;22.70;55.60
58554;DHT22;48119;53.218;6.576;2022-09-02T13:53:27;22.80;55.70
58554;DHT22;48119;53.218;6.576;2022-09-02T13:55:59;22.80;55.50
58554;DHT22;48119;53.218;6.576;2022-09-02T14:01:23;22.70;55.10
58554;DHT22;48119;53.218;6.576;2022-09-02T14:03:51;22.80;55.00
58554;DHT22;48119;53.218;6.576;2022-09-02T14:06:27;22.80;54.90
58554;DHT22;48119;53.218;6.576;2022-09-02T14:09:00;22.80;54.90
58554;DHT22;48119;53.218;6.576;2022-09-02T14:11:42;22.80;54.80
58554;DHT22;48119;53.218;6.576;2022-09-02T14:14:15;22.80;54.20
58554;DHT22;48119;53.218;6.576;2022-09-02T14:16:41;22.80;53.80
58554;DHT22;48119;53.218;6.576;2022-09-02T14:21:36;22.80;53.70
58554;DHT22;48119;53.218;6.576;2022-09-02T14:24:12;22.80;53.80
58554;DHT22;48119;53.218;6.576;2022-09-02T14:26:44;22.80;54.00
58554;DHT22;48119;53.218;6.576;2022-09-02T14:29:18;22.80;54.30
58554;DHT22;48119;53.218;6.576;2022-09-02T14:31:45;22.80;54.40
58554;DHT22;48119;53.218;6.576;2022-09-02T14:34:34;22.90;54.10
58554;DHT22;48119;53.218;6.576;2022-09-02T14:37:12;22.80;53.70
58554;DHT22;48119;53.218;6.576;2022-09-02T14:42:31;22.80;53.60
58554;DHT22;48119;53.218;6.576;2022-09-02T14:44:57;22.80;53.60
58554;DHT22;48119;53.218;6.576;2022-09-02T14:47:23;22.80;53.80
58554;DHT22;48119;53.218;6.576;2022-09-02T14:49:54;22.80;53.80
58554;DHT22;48119;53.218;6.576;2022-09-02T14:52:29;22.80;53.40
58554;DHT22;48119;53.218;6.576;2022-09-02T14:54:58;22.80;53.50
58554;DHT22;48119;53.218;6.576;2022-09-02T14:57:26;22.80;53.90
58554;DHT22;48119;53.218;6.576;2022-09-02T14:59:54;22.80;53.90
58554;DHT22;48119;53.218;6.576;2022-09-02T15:04:53;22.80;53.80
58554;DHT22;48119;53.218;6.576;2022-09-02T15:07:20;22.80;53.80
58554;DHT22;48119;53.218;6.576;2022-09-02T15:09:46;22.80;53.70
58554;DHT22;48119;53.218;6.576;2022-09-02T15:12:16;22.80;53.60
58554;DHT22;48119;53.218;6.576;2022-09-02T15:14:44;22.90;53.50
58554;DHT22;48119;53.218;6.576;2022-09-02T15:17:12;22.90;53.40
58554;DHT22;48119;53.218;6.576;2022-09-02T15:19:39;22.90;53.90
58554;DHT22;48119;53.218;6.576;2022-09-02T15:22:05;22.80;53.30
58554;DHT22;48119;53.218;6.576;2022-09-02T15:24:31;22.80;53.40
58554;DHT22;48119;53.218;6.576;2022-09-02T15:26:57;22.80;53.60
58554;DHT22;48119;53.218;6.576;2022-09-02T15:29:23;22.80;53.50
58554;DHT22;48119;53.218;6.576;2022-09-02T15:31:53;22.80;53.20
58554;DHT22;48119;53.218;6.576;2022-09-02T15:34:22;22.90;53.30
58554;DHT22;48119;53.218;6.576;2022-09-02T15:36:48;22.90;53.10
58554;DHT22;48119;53.218;6.576;2022-09-02T15:39:14;22.90;53.10
58554;DHT22;48119;53.218;6.576;2022-09-02T15:41:42;22.90;52.70
58554;DHT22;48119;53.218;6.576;2022-09-02T15:44:08;22.90;52.90
58554;DHT22;48119;53.218;6.576;2022-09-02T15:46:34;22.90;52.20
58554;DHT22;48119;53.218;6.576;2022-09-02T15:49:04;22.80;52.10
58554;DHT22;48119;53.218;6.576;2022-09-02T15:51:34;22.90;52.10
58554;DHT22;48119;53.218;6.576;2022-09-02T15:54:03;22.90;52.10
58554;DHT22;48119;53.218;6.576;2022-09-02T15:56:31;22.90;52.30
58554;DHT22;48119;53.218;6.576;2022-09-02T15:58:59;22.90;52.50
58554;DHT22;48119;53.218;6.576;2022-09-02T16:01:27;22.90;52.70
58554;DHT22;48119;53.218;6.576;2022-09-02T16:03:53;22.90;52.90
58554;DHT22;48119;53.218;6.576;2022-09-02T16:06:21;22.90;53.10
58554;DHT22;48119;53.218;6.576;2022-09-02T16:08:47;22.90;52.90
58554;DHT22;48119;53.218;6.576;2022-09-02T16:11:14;22.90;52.80
58554;DHT22;48119;53.218;6.576;2022-09-02T16:13:41;22.90;52.80
58554;DHT22;48119;53.218;6.576;2022-09-02T16:16:09;22.90;53.00
58554;DHT22;48119;53.218;6.576;2022-09-02T16:18:36;22.90;53.10
58554;DHT22;48119;53.218;6.576;2022-09-02T16:21:03;22.90;53.30
58554;DHT22;48119;53.218;6.576;2022-09-02T16:23:33;22.90;53.20
58554;DHT22;48119;53.218;6.576;2022-09-02T16:26:22;22.80;53.10
58554;DHT22;48119;53.218;6.576;2022-09-02T16:28:49;22.90;52.80
58554;DHT22;48119;53.218;6.576;2022-09-02T16:31:17;22.80;53.00
58554;DHT22;48119;53.218;6.576;2022-09-02T16:34:04;22.80;53.10
58554;DHT22;48119;53.218;6.576;2022-09-02T16:36:32;22.80;53.40
58554;DHT22;48119;53.218;6.576;2022-09-02T16:38:59;22.80;53.40
58554;DHT22;48119;53.218;6.576;2022-09-02T16:41:37;22.80;53.20
58554;DHT22;48119;53.218;6.576;2022-09-02T16:44:08;22.80;53.30
58554;DHT22;48119;53.218;6.576;2022-09-02T16:46:35;22.80;53.60
58554;DHT22;48119;53.218;6.576;2022-09-02T16:49:05;22.80;53.80
58554;DHT22;48119;53.218;6.576;2022-09-02T16:51:31;22.80;53.80
58554;DHT22;48119;53.218;6.576;2022-09-02T16:54:03;22.80;53.90
58554;DHT22;48119;53.218;6.576;2022-09-02T16:56:30;22.80;54.20
58554;DHT22;48119;53.218;6.576;2022-09-02T16:59:00;22.80;54.40
58554;DHT22;48119;53.218;6.576;2022-09-02T17:01:26;22.80;54.40
58554;DHT22;48119;53.218;6.576;2022-09-02T17:03:52;22.80;54.40
58554;DHT22;48119;53.218;6.576;2022-09-02T17:06:18;22.80;54.60
58554;DHT22;48119;53.218;6.576;2022-09-02T17:08:43;22.80;54.80
58554;DHT22;48119;53.218;6.576;2022-09-02T17:13:45;22.80;56.60
58554;DHT22;48119;53.218;6.576;2022-09-02T17:16:12;22.80;56.20
58554;DHT22;48119;53.218;6.576;2022-09-02T17:18:38;22.80;56.50
58554;DHT22;48119;53.218;6.576;2022-09-02T17:21:29;22.70;57.00
58554;DHT22;48119;53.218;6.576;2022-09-02T17:23:56;22.70;57.30
58554;DHT22;48119;53.218;6.576;2022-09-02T17:26:24;22.70;57.50
58554;DHT22;48119;53.218;6.576;2022-09-02T17:28:51;22.70;57.60
58554;DHT22;48119;53.218;6.576;2022-09-02T17:31:28;22.70;57.70
58554;DHT22;48119;53.218;6.576;2022-09-02T17:33:56;22.70;57.80
58554;DHT22;48119;53.218;6.576;2022-09-02T17:36:23;22.70;57.90
58554;DHT22;48119;53.218;6.576;2022-09-02T17:38:58;22.70;58.20
58554;DHT22;48119;53.218;6.576;2022-09-02T17:41:25;22.60;58.20
58554;DHT22;48119;53.218;6.576;2022-09-02T17:44:10;22.60;58.30
58554;DHT22;48119;53.218;6.576;2022-09-02T17:46:36;22.60;58.30
58554;DHT22;48119;53.218;6.576;2022-09-02T17:49:02;22.60;58.40
58554;DHT22;48119;53.218;6.576;2022-09-02T17:51:29;22.60;58.60
58554;DHT22;48119;53.218;6.576;2022-09-02T17:53:55;22.60;58.70
58554;DHT22;48119;53.218;6.576;2022-09-02T18:01:23;22.50;58.70
58554;DHT22;48119;53.218;6.576;2022-09-02T18:04:20;22.50;58.90
58554;DHT22;48119;53.218;6.576;2022-09-02T18:06:53;22.50;59.00